createdAt,value
2023-02-16T00:02:09.995Z,16.43
2023-02-16T00:04:36.981Z,17.50
2023-02-16T00:07:03.545Z,19.80
2023-02-16T00:09:30.184Z,20.83
2023-02-16T00:12:16.629Z,20.20
2023-02-16T00:14:43.234Z,22.33
2023-02-16T00:17:11.154Z,30.70
2023-02-16T00:19:40.439Z,26.67
2023-02-16T00:22:08.325Z,24.03
2023-02-16T00:24:35.277Z,21.50
2023-02-16T00:27:01.982Z,22.67
2023-02-16T00:29:34.765Z,22.03
2023-02-16T00:32:03.637Z,21.13
2023-02-16T00:34:40.150Z,23.37
2023-02-16T00:37:09.650Z,21.87
2023-02-16T00:39:37.085Z,21.10
2023-02-16T00:42:19.600Z,18.20
2023-02-16T00:44:49.033Z,16.20
2023-02-16T00:47:20.466Z,15.83
2023-02-16T00:49:49.419Z,15.63
2023-02-16T00:52:29.487Z,16.47
2023-02-16T00:54:57.366Z,14.97
2023-02-16T00:57:25.806Z,16.30
2023-02-16T01:00:00.555Z,15.03
2023-02-16T01:02:27.821Z,15.37
2023-02-16T01:04:55.548Z,15.33
2023-02-16T01:07:41.373Z,15.87
2023-02-16T01:10:27.037Z,14.33
2023-02-16T01:12:53.675Z,15.30
2023-02-16T01:15:23.270Z,14.53
2023-02-16T01:17:51.537Z,15.17
2023-02-16T01:20:21.313Z,15.37
2023-02-16T01:22:48.251Z,14.80
2023-02-16T01:25:15.873Z,15.50
2023-02-16T01:27:43.465Z,14.80
2023-02-16T01:30:16.686Z,16.27
2023-02-16T01:32:51.217Z,15.83
2023-02-16T01:35:19.772Z,15.07
2023-02-16T01:37:46.439Z,15.33
2023-02-16T01:40:26.584Z,14.87
2023-02-16T01:42:58.611Z,14.50
2023-02-16T01:45:38.852Z,16.10
2023-02-16T01:48:13.578Z,14.20
2023-02-16T01:50:53.498Z,15.20
2023-02-16T01:53:26.969Z,14.73
2023-02-16T01:55:58.779Z,14.63
2023-02-16T01:58:35.543Z,14.87
2023-02-16T02:01:02.417Z,15.93
2023-02-16T02:03:53.671Z,13.07
2023-02-16T02:06:33.738Z,14.23
2023-02-16T02:09:07.777Z,13.87
2023-02-16T02:12:00.580Z,14.67
2023-02-16T02:14:33.211Z,14.40
2023-02-16T02:17:08.145Z,15.83
2023-02-16T02:19:55.908Z,13.90
2023-02-16T02:22:52.276Z,13.40
2023-02-16T02:25:40.734Z,14.40
2023-02-16T02:28:17.423Z,14.13
2023-02-16T02:30:51.806Z,15.30
2023-02-16T02:33:28.505Z,13.77
2023-02-16T02:36:21.962Z,15.43
2023-02-16T02:39:19.842Z,15.40
2023-02-16T02:42:06.311Z,15.77
2023-02-16T02:44:46.756Z,14.47
2023-02-16T02:47:13.666Z,15.43
2023-02-16T02:49:49.539Z,14.70
2023-02-16T02:52:16.350Z,14.67
2023-02-16T02:55:02.252Z,14.33
2023-02-16T02:58:03.007Z,14.10
2023-02-16T03:00:41.918Z,14.30
2023-02-16T03:03:34.110Z,14.13
2023-02-16T03:06:13.403Z,14.40
2023-02-16T03:08:43.249Z,14.73
2023-02-16T03:11:34.557Z,14.33
2023-02-16T03:14:05.912Z,14.47
2023-02-16T03:16:44.665Z,14.70
2023-02-16T03:19:33.086Z,14.70
2023-02-16T03:22:19.267Z,15.27
2023-02-16T03:25:05.029Z,15.00
2023-02-16T03:27:59.738Z,14.63
2023-02-16T03:30:27.991Z,14.97
2023-02-16T03:32:54.901Z,15.93
2023-02-16T03:35:21.940Z,14.87
2023-02-16T03:37:48.692Z,14.37
2023-02-16T03:40:28.940Z,14.43
2023-02-16T03:42:57.874Z,14.80
2023-02-16T03:45:25.456Z,14.50
2023-02-16T03:47:52.740Z,14.17
2023-02-16T03:50:19.493Z,13.87
2023-02-16T03:52:46.094Z,13.83
2023-02-16T03:55:12.796Z,14.17
2023-02-16T03:57:39.398Z,14.77
2023-02-16T04:00:06.946Z,13.60
2023-02-16T04:02:40.042Z,12.57
2023-02-16T04:05:06.944Z,12.93
2023-02-16T04:07:33.650Z,13.30
2023-02-16T04:10:00.262Z,13.37
2023-02-16T04:12:39.039Z,12.13
2023-02-16T04:15:18.010Z,13.33
2023-02-16T04:17:45.033Z,12.57
2023-02-16T04:20:16.155Z,15.03
2023-02-16T04:22:43.853Z,13.37
2023-02-16T04:25:11.371Z,14.37
2023-02-16T04:27:40.628Z,14.47
2023-02-16T04:30:09.308Z,14.23
2023-02-16T04:32:35.911Z,13.57
2023-02-16T04:35:02.567Z,14.30
2023-02-16T04:37:31.081Z,13.47
2023-02-16T04:39:57.727Z,14.40
2023-02-16T04:42:24.514Z,14.23
2023-02-16T04:44:51.288Z,14.30
2023-02-16T04:47:18.133Z,13.87
2023-02-16T04:49:44.818Z,14.70
2023-02-16T04:52:13.298Z,13.73
2023-02-16T04:54:40.254Z,14.07
2023-02-16T04:57:06.911Z,13.37
2023-02-16T04:59:33.493Z,13.13
2023-02-16T05:02:00.180Z,14.10
2023-02-16T05:04:26.794Z,13.93
2023-02-16T05:06:53.511Z,14.27
2023-02-16T05:09:20.799Z,14.13
2023-02-16T05:12:05.788Z,14.83
2023-02-16T05:14:47.211Z,14.77
2023-02-16T05:17:19.532Z,14.60
2023-02-16T05:19:48.931Z,14.43
2023-02-16T05:22:16.063Z,13.87
2023-02-16T05:24:43.767Z,14.00
2023-02-16T05:27:16.847Z,14.87
2023-02-16T05:29:43.664Z,14.53
2023-02-16T05:32:10.946Z,15.97
2023-02-16T05:34:37.770Z,15.80
2023-02-16T05:37:05.084Z,13.97
2023-02-16T05:39:31.918Z,15.93
2023-02-16T05:41:58.597Z,15.80
2023-02-16T05:44:25.244Z,15.90
2023-02-16T05:46:51.888Z,16.17
2023-02-16T05:49:18.721Z,17.07
2023-02-16T05:51:45.711Z,17.47
2023-02-16T05:54:17.333Z,15.87
2023-02-16T05:56:46.230Z,17.67
2023-02-16T05:59:13.532Z,16.47
2023-02-16T06:01:41.018Z,16.90
2023-02-16T06:04:13.127Z,15.70
2023-02-16T06:06:40.452Z,17.03
2023-02-16T06:09:08.869Z,16.40
2023-02-16T06:11:35.873Z,15.53
2023-02-16T06:14:08.703Z,15.60
2023-02-16T06:16:37.267Z,15.57
2023-02-16T06:19:04.182Z,16.10
2023-02-16T06:21:31.002Z,17.67
2023-02-16T06:23:57.892Z,16.83
2023-02-16T06:26:25.172Z,16.67
2023-02-16T06:28:51.810Z,16.13
2023-02-16T06:31:18.609Z,16.27
2023-02-16T06:33:45.477Z,16.73
2023-02-16T06:36:12.356Z,16.73
2023-02-16T06:38:39.100Z,16.50
2023-02-16T06:41:06.374Z,16.53
2023-02-16T06:43:33.398Z,15.83
2023-02-16T06:46:00.292Z,16.40
2023-02-16T06:48:26.920Z,14.63
2023-02-16T06:51:11.953Z,16.17
2023-02-16T06:53:38.601Z,15.10
2023-02-16T06:56:05.496Z,15.53
2023-02-16T06:58:32.156Z,16.07
2023-02-16T07:00:58.809Z,15.50
2023-02-16T07:03:25.529Z,15.70
2023-02-16T07:05:52.218Z,15.80
2023-02-16T07:08:37.207Z,15.97
2023-02-16T07:11:22.309Z,15.10
2023-02-16T07:13:49.162Z,16.27
2023-02-16T07:16:34.153Z,14.40
2023-02-16T07:19:16.417Z,15.13
2023-02-16T07:21:43.666Z,15.57
2023-02-16T07:24:10.440Z,14.80
2023-02-16T07:26:38.682Z,17.30
2023-02-16T07:29:05.356Z,16.30
2023-02-16T07:31:32.038Z,15.23
2023-02-16T07:33:58.784Z,16.10
2023-02-16T07:36:25.487Z,15.83
2023-02-16T07:38:52.112Z,15.77
2023-02-16T07:41:18.675Z,16.00
2023-02-16T07:43:45.252Z,15.73
2023-02-16T07:46:11.940Z,14.73
2023-02-16T07:48:38.786Z,16.10
2023-02-16T07:51:06.008Z,15.37
2023-02-16T07:53:32.925Z,14.50
2023-02-16T07:55:59.656Z,15.43
2023-02-16T07:58:29.267Z,17.10
2023-02-16T08:01:16.124Z,16.03
2023-02-16T08:03:43.145Z,14.77
2023-02-16T08:06:09.715Z,15.90
2023-02-16T08:08:36.655Z,16.97
2023-02-16T08:11:18.606Z,16.70
2023-02-16T08:13:45.398Z,16.53
2023-02-16T08:16:18.045Z,16.87
2023-02-16T08:19:04.422Z,16.60
2023-02-16T08:21:33.594Z,16.17
2023-02-16T08:24:03.566Z,15.37
2023-02-16T08:26:40.070Z,15.23
2023-02-16T08:29:25.781Z,17.83
2023-02-16T08:31:53.820Z,15.50
2023-02-16T08:34:40.413Z,16.07
2023-02-16T08:37:26.831Z,15.50
2023-02-16T08:39:53.902Z,16.23
2023-02-16T08:42:21.189Z,16.40
2023-02-16T08:44:48.144Z,20.40
2023-02-16T08:47:16.680Z,17.23
2023-02-16T08:49:44.444Z,26.93
2023-02-16T08:52:12.430Z,20.80
2023-02-16T08:54:39.809Z,17.20
2023-02-16T08:57:06.695Z,16.60
2023-02-16T08:59:34.805Z,22.37
2023-02-16T09:02:01.988Z,20.07
2023-02-16T09:04:29.160Z,17.27
2023-02-16T09:06:56.508Z,16.97
2023-02-16T09:09:23.409Z,17.47
2023-02-16T09:11:50.085Z,15.87
2023-02-16T09:14:35.368Z,17.30
2023-02-16T09:17:02.972Z,17.57
2023-02-16T09:19:29.716Z,17.23
2023-02-16T09:22:15.254Z,16.00
2023-02-16T09:24:41.886Z,17.47
2023-02-16T09:27:09.406Z,17.47
2023-02-16T09:29:36.004Z,16.47
2023-02-16T09:32:02.734Z,16.63
2023-02-16T09:34:29.800Z,15.67
2023-02-16T09:36:56.532Z,16.67
2023-02-16T09:39:23.173Z,16.23
2023-02-16T09:42:01.547Z,17.50
2023-02-16T09:44:37.437Z,16.30
2023-02-16T09:47:15.404Z,16.33
2023-02-16T09:49:45.009Z,17.13
2023-02-16T09:52:27.073Z,16.27
2023-02-16T09:55:08.031Z,15.60
2023-02-16T09:57:55.577Z,17.23
2023-02-16T10:00:34.534Z,17.00
2023-02-16T10:03:19.069Z,16.07
2023-02-16T10:05:48.677Z,16.10
2023-02-16T10:08:24.778Z,15.70
2023-02-16T10:11:33.291Z,18.03
2023-02-16T10:14:07.961Z,17.23
2023-02-16T10:16:42.697Z,16.70
2023-02-16T10:19:22.529Z,18.30
2023-02-16T10:21:55.840Z,17.33
2023-02-16T10:24:25.934Z,18.00
2023-02-16T10:27:02.517Z,17.97
2023-02-16T10:29:29.440Z,17.83
2023-02-16T10:32:12.847Z,16.43
2023-02-16T10:35:21.804Z,17.17
2023-02-16T10:38:08.410Z,15.50
2023-02-16T10:41:27.942Z,14.77
2023-02-16T10:44:04.716Z,15.60
2023-02-16T10:46:57.036Z,15.40
2023-02-16T10:49:43.164Z,14.70
2023-02-16T10:52:11.542Z,17.87
2023-02-16T10:54:56.782Z,15.37
2023-02-16T10:57:30.917Z,15.23
2023-02-16T11:00:01.600Z,16.07
2023-02-16T11:02:51.301Z,15.93
2023-02-16T11:05:31.132Z,14.77
2023-02-16T11:08:01.757Z,15.17
2023-02-16T11:10:46.955Z,13.67
2023-02-16T11:13:34.611Z,14.77
2023-02-16T11:16:09.612Z,14.00
2023-02-16T11:18:40.102Z,14.13
2023-02-16T11:21:08.661Z,14.27
2023-02-16T11:24:02.104Z,14.93
2023-02-16T11:26:28.886Z,14.53
2023-02-16T11:29:13.294Z,15.07
2023-02-16T11:31:59.987Z,14.83
2023-02-16T11:34:34.662Z,15.00
2023-02-16T11:37:05.391Z,13.93
2023-02-16T11:39:37.471Z,22.50
2023-02-16T11:42:09.011Z,19.83
2023-02-16T11:44:41.239Z,18.80
2023-02-16T11:47:23.049Z,23.33
2023-02-16T11:50:04.701Z,16.07
2023-02-16T11:52:32.581Z,15.67
2023-02-16T11:55:01.992Z,15.07
2023-02-16T11:57:35.809Z,15.43
2023-02-16T12:00:14.355Z,16.50
2023-02-16T12:03:02.910Z,16.90
2023-02-16T12:06:08.285Z,21.03
2023-02-16T12:08:54.680Z,17.40
2023-02-16T12:11:44.074Z,15.83
2023-02-16T12:14:32.267Z,14.90
2023-02-16T12:17:18.899Z,15.90
2023-02-16T12:19:48.337Z,15.17
2023-02-16T12:22:14.931Z,13.67
2023-02-16T12:25:15.741Z,15.53
2023-02-16T12:28:13.399Z,14.10
2023-02-16T12:31:22.164Z,15.27
2023-02-16T12:34:23.641Z,14.23
2023-02-16T12:37:00.311Z,25.63
2023-02-16T12:39:39.529Z,31.97
2023-02-16T12:42:42.680Z,28.20
2023-02-16T12:45:14.121Z,17.03
2023-02-16T12:47:52.383Z,14.40
2023-02-16T12:50:27.136Z,14.37
2023-02-16T12:52:53.952Z,13.23
2023-02-16T12:55:42.110Z,13.17
2023-02-16T12:58:14.880Z,12.93
2023-02-16T13:00:52.490Z,12.63
2023-02-16T13:03:19.713Z,13.70
2023-02-16T13:05:54.258Z,13.70
2023-02-16T13:08:42.950Z,12.30
2023-02-16T13:11:28.322Z,12.40
2023-02-16T13:14:01.434Z,11.80
2023-02-16T13:16:39.409Z,12.63
2023-02-16T13:19:06.074Z,11.63
2023-02-16T13:22:01.533Z,12.03
2023-02-16T13:24:46.379Z,11.20
2023-02-16T13:27:37.248Z,11.37
2023-02-16T13:30:40.140Z,10.60
2023-02-16T13:33:18.111Z,10.67
2023-02-16T13:36:02.718Z,9.70
2023-02-16T13:38:40.834Z,10.30
2023-02-16T13:41:41.606Z,10.07
2023-02-16T13:44:19.120Z,10.03
2023-02-16T13:46:52.750Z,10.67
2023-02-16T13:49:40.329Z,9.93
2023-02-16T13:52:08.734Z,9.73
2023-02-16T13:54:43.778Z,9.60
2023-02-16T13:57:34.829Z,7.93
2023-02-16T14:00:05.827Z,7.57
2023-02-16T14:02:59.207Z,8.10
2023-02-16T14:05:35.416Z,8.07
2023-02-16T14:08:23.805Z,6.83
2023-02-16T14:10:53.336Z,6.53
2023-02-16T14:13:38.702Z,6.77
2023-02-16T14:16:17.313Z,6.00
2023-02-16T14:18:45.921Z,6.43
2023-02-16T14:21:28.518Z,5.40
2023-02-16T14:23:57.213Z,6.30
2023-02-16T14:26:24.752Z,5.93
2023-02-16T14:29:21.002Z,6.50
2023-02-16T14:31:56.983Z,6.10
2023-02-16T14:34:29.240Z,5.53
2023-02-16T14:37:28.582Z,5.63
2023-02-16T14:40:08.960Z,5.40
2023-02-16T14:42:36.081Z,5.27
2023-02-16T14:45:22.998Z,6.30
2023-02-16T14:48:13.379Z,5.67
2023-02-16T14:51:00.131Z,5.87
2023-02-16T14:53:29.504Z,6.10
2023-02-16T14:56:13.485Z,6.37
2023-02-16T14:59:02.373Z,5.27
2023-02-16T15:01:29.136Z,5.60
2023-02-16T15:03:57.985Z,4.83
2023-02-16T15:06:36.379Z,5.60
2023-02-16T15:09:13.302Z,6.43
2023-02-16T15:12:09.464Z,6.53
2023-02-16T15:14:42.963Z,5.40
2023-02-16T15:17:10.266Z,6.27
2023-02-16T15:19:37.367Z,6.63
2023-02-16T15:22:13.203Z,5.70
2023-02-16T15:24:41.250Z,13.37
2023-02-16T15:27:20.956Z,8.23
2023-02-16T15:30:20.353Z,14.43
2023-02-16T15:32:59.351Z,14.57
2023-02-16T15:35:29.752Z,8.50
2023-02-16T15:38:12.798Z,8.50
2023-02-16T15:40:40.059Z,6.63
2023-02-16T15:43:33.978Z,6.67
2023-02-16T15:46:03.315Z,6.47
2023-02-16T15:48:36.643Z,7.43
2023-02-16T15:51:20.860Z,7.27
2023-02-16T15:54:04.366Z,7.30
2023-02-16T15:56:44.795Z,6.60
2023-02-16T15:59:32.477Z,6.63
2023-02-16T16:02:03.743Z,6.83
2023-02-16T16:04:32.099Z,8.03
2023-02-16T16:07:00.045Z,8.50
2023-02-16T16:09:30.024Z,8.70
2023-02-16T16:12:03.929Z,8.87
2023-02-16T16:14:34.838Z,10.27
2023-02-16T16:17:03.229Z,11.67
2023-02-16T16:19:38.320Z,13.07
2023-02-16T16:22:29.653Z,12.70
2023-02-16T16:24:56.473Z,12.93
2023-02-16T16:27:33.213Z,13.03
2023-02-16T16:30:28.656Z,14.67
2023-02-16T16:33:03.486Z,15.77
2023-02-16T16:35:47.450Z,14.20
2023-02-16T16:38:26.241Z,16.37
2023-02-16T16:40:58.965Z,16.60
2023-02-16T16:43:51.843Z,18.37
2023-02-16T16:46:25.927Z,17.77
2023-02-16T16:48:56.608Z,17.83
2023-02-16T16:51:31.164Z,20.27
2023-02-16T16:54:00.746Z,18.23
2023-02-16T16:56:29.736Z,19.60
2023-02-16T16:58:58.524Z,18.97
2023-02-16T17:01:29.309Z,18.50
2023-02-16T17:03:56.506Z,19.30
2023-02-16T17:06:24.130Z,20.07
2023-02-16T17:08:51.031Z,19.67
2023-02-16T17:11:33.285Z,21.03
2023-02-16T17:14:14.277Z,17.17
2023-02-16T17:16:44.331Z,21.23
2023-02-16T17:19:16.968Z,19.63
2023-02-16T17:21:44.768Z,16.97
2023-02-16T17:24:12.900Z,16.90
2023-02-16T17:26:39.811Z,15.63
2023-02-16T17:29:07.157Z,17.30
2023-02-16T17:31:34.358Z,16.03
2023-02-16T17:34:01.358Z,18.50
2023-02-16T17:36:28.777Z,18.23
2023-02-16T17:38:55.507Z,17.27
2023-02-16T17:41:25.290Z,16.00
2023-02-16T17:43:52.264Z,17.40
2023-02-16T17:46:20.235Z,16.30
2023-02-16T17:48:53.374Z,17.07
2023-02-16T17:51:22.942Z,17.07
2023-02-16T17:53:49.919Z,16.73
2023-02-16T17:56:19.922Z,14.87
2023-02-16T17:58:46.531Z,15.20
2023-02-16T18:01:15.258Z,15.73
2023-02-16T18:03:42.183Z,15.40
2023-02-16T18:06:18.438Z,16.17
2023-02-16T18:08:46.243Z,15.27
2023-02-16T18:11:13.209Z,16.77
2023-02-16T18:13:40.077Z,16.53
2023-02-16T18:16:08.168Z,15.13
2023-02-16T18:18:39.017Z,14.40
2023-02-16T18:21:06.060Z,13.97
2023-02-16T18:23:33.036Z,15.60
2023-02-16T18:25:59.860Z,12.90
2023-02-16T18:28:30.707Z,16.47
2023-02-16T18:30:58.185Z,14.33
2023-02-16T18:33:25.493Z,15.60
2023-02-16T18:35:54.488Z,13.83
2023-02-16T18:38:22.503Z,14.57
2023-02-16T18:40:51.519Z,15.83
2023-02-16T18:43:18.254Z,15.10
2023-02-16T18:45:44.835Z,16.70
2023-02-16T18:48:11.521Z,15.63
2023-02-16T18:50:38.698Z,16.10
2023-02-16T18:53:06.185Z,12.27
2023-02-16T18:55:33.323Z,12.70
2023-02-16T18:58:01.385Z,15.73
2023-02-16T19:00:28.159Z,13.33
2023-02-16T19:02:55.891Z,12.40
2023-02-16T19:05:23.383Z,13.70
2023-02-16T19:07:50.838Z,11.80
2023-02-16T19:10:18.838Z,12.93
2023-02-16T19:12:45.449Z,10.70
2023-02-16T19:15:12.188Z,11.00
2023-02-16T19:17:39.109Z,12.93
2023-02-16T19:20:14.453Z,12.87
2023-02-16T19:22:41.327Z,10.50
2023-02-16T19:25:08.163Z,12.00
2023-02-16T19:27:35.150Z,14.10
2023-02-16T19:30:01.785Z,14.27
2023-02-16T19:32:30.969Z,14.00
2023-02-16T19:34:57.635Z,12.93
2023-02-16T19:37:24.472Z,13.53
2023-02-16T19:39:51.247Z,13.90
2023-02-16T19:42:17.878Z,13.60
2023-02-16T19:44:44.473Z,11.80
2023-02-16T19:47:11.153Z,10.23
2023-02-16T19:49:38.202Z,11.03
2023-02-16T19:52:05.244Z,10.27
2023-02-16T19:54:34.837Z,10.57
2023-02-16T19:57:03.143Z,10.57
2023-02-16T19:59:31.414Z,9.33
2023-02-16T20:01:58.982Z,10.43
2023-02-16T20:04:25.941Z,11.50
2023-02-16T20:06:54.341Z,12.37
2023-02-16T20:09:21.898Z,11.73
2023-02-16T20:11:49.564Z,11.07
2023-02-16T20:14:16.542Z,10.10
2023-02-16T20:16:43.420Z,9.50
2023-02-16T20:19:10.736Z,9.87
2023-02-16T20:21:37.730Z,11.10
2023-02-16T20:24:05.652Z,9.63
2023-02-16T20:26:52.001Z,10.43
2023-02-16T20:29:20.558Z,9.37
2023-02-16T20:31:52.943Z,9.93
2023-02-16T20:34:20.012Z,13.23
2023-02-16T20:36:46.706Z,11.67
2023-02-16T20:39:13.443Z,10.70
2023-02-16T20:41:40.895Z,10.10
2023-02-16T20:44:08.339Z,10.97
2023-02-16T20:46:35.085Z,11.20
2023-02-16T20:49:04.423Z,11.93
2023-02-16T20:51:31.635Z,12.70
2023-02-16T20:54:00.365Z,10.27
2023-02-16T20:56:28.310Z,9.87
2023-02-16T20:58:56.833Z,9.27
2023-02-16T21:01:30.636Z,10.03
2023-02-16T21:03:58.583Z,11.97
2023-02-16T21:06:25.749Z,10.90
2023-02-16T21:08:52.567Z,11.10
2023-02-16T21:11:19.528Z,10.07
2023-02-16T21:13:46.407Z,10.37
2023-02-16T21:16:14.146Z,9.50
2023-02-16T21:18:41.188Z,10.00
2023-02-16T21:21:14.988Z,9.87
2023-02-16T21:23:47.959Z,8.67
2023-02-16T21:26:15.874Z,11.07
2023-02-16T21:28:42.672Z,7.97
2023-02-16T21:31:15.536Z,7.87
2023-02-16T21:33:42.629Z,8.27
2023-02-16T21:36:12.432Z,8.90
2023-02-16T21:38:40.240Z,8.60
2023-02-16T21:41:24.784Z,8.30
2023-02-16T21:44:02.205Z,7.70
2023-02-16T21:46:37.756Z,8.60
2023-02-16T21:49:07.289Z,9.90
2023-02-16T21:51:36.846Z,7.60
2023-02-16T21:54:06.508Z,7.67
2023-02-16T21:56:45.234Z,9.80
2023-02-16T21:59:15.259Z,9.80
2023-02-16T22:01:48.312Z,11.83
2023-02-16T22:04:18.014Z,8.30
2023-02-16T22:06:46.872Z,9.00
2023-02-16T22:09:22.852Z,9.13
2023-02-16T22:11:53.154Z,7.53
2023-02-16T22:14:19.904Z,8.83
2023-02-16T22:16:48.173Z,10.37
2023-02-16T22:19:17.670Z,7.13
2023-02-16T22:21:45.856Z,7.20
2023-02-16T22:24:14.741Z,9.30
2023-02-16T22:26:42.424Z,6.63
2023-02-16T22:29:09.650Z,6.60
2023-02-16T22:31:37.183Z,6.60
2023-02-16T22:34:11.661Z,6.33
2023-02-16T22:36:40.029Z,7.63
2023-02-16T22:39:07.430Z,11.67
2023-02-16T22:41:34.973Z,7.10
2023-02-16T22:44:01.563Z,7.00
2023-02-16T22:46:29.501Z,6.70
2023-02-16T22:49:00.893Z,6.50
2023-02-16T22:51:29.233Z,6.67
2023-02-16T22:53:58.697Z,6.07
2023-02-16T22:56:26.853Z,5.80
2023-02-16T22:58:57.394Z,5.50
2023-02-16T23:01:25.495Z,7.43
2023-02-16T23:03:56.508Z,6.10
2023-02-16T23:06:29.190Z,6.73
2023-02-16T23:09:05.136Z,6.50
2023-02-16T23:11:32.777Z,6.97
2023-02-16T23:13:59.428Z,6.60
2023-02-16T23:16:27.324Z,6.67
2023-02-16T23:18:58.916Z,6.30
2023-02-16T23:21:28.931Z,7.27
2023-02-16T23:23:56.238Z,6.07
2023-02-16T23:26:25.875Z,7.07
2023-02-16T23:28:54.571Z,7.03
2023-02-16T23:31:21.727Z,7.33
2023-02-16T23:33:49.738Z,6.43
2023-02-16T23:36:16.636Z,6.33
2023-02-16T23:38:43.486Z,9.37
2023-02-16T23:41:13.250Z,8.47
2023-02-16T23:43:40.304Z,9.30
2023-02-16T23:46:07.667Z,15.43
2023-02-16T23:48:34.491Z,8.37
2023-02-16T23:51:01.102Z,6.67
2023-02-16T23:53:28.755Z,8.10
2023-02-16T23:56:11.544Z,10.97
2023-02-16T23:58:44.980Z,7.27
